Time;durP1;ratioP1;P1;durP2;ratioP2;P2;SDS_P1;SDS_P2;PMS_P1;PMS_P2;Temp;Humidity;BMP_temperature;BMP_pressure;BME280_temperature;BME280_humidity;BME280_pressure;Samples;Min_cycle;Max_cycle;Signal;HPM_P1;HPM_P2
2021/12/20 04:30:12;;;;;;;32.73;18.10;;;;;;;8.83;59.11;99557.19;8403107;23;20269;31
2021/12/20 04:33:35;;;;;;;33.63;17.07;;;;;;;8.66;58.87;99534.91;6823065;29;20223;-81
2021/12/20 04:36:57;;;;;;;33.10;18.00;;;;;;;8.54;59.63;99552.44;6818456;29;20232;-83
2021/12/20 04:40:21;;;;;;;33.60;18.43;;;;;;;8.82;59.77;99561.72;6818841;29;20667;-81
2021/12/20 04:43:43;;;;;;;29.30;17.17;;;;;;;8.68;59.75;99540.97;6819500;29;20210;-81
2021/12/20 04:47:04;;;;;;;29.50;17.67;;;;;;;8.49;59.55;99517.16;6818757;29;20231;-80
2021/12/20 04:50:28;;;;;;;32.33;18.43;;;;;;;8.77;59.39;99555.19;6818536;29;20220;-82
2021/12/20 04:53:49;;;;;;;30.00;17.87;;;;;;;8.63;59.01;99526.34;6819242;29;20212;-81
2021/12/20 04:57:11;;;;;;;30.57;16.77;;;;;;;8.51;59.31;99557.31;6817792;29;20234;-81
2021/12/20 05:00:36;;;;;;;29.97;17.20;;;;;;;8.75;59.28;99566.13;6818405;29;20223;-82
2021/12/20 05:03:57;;;;;;;29.70;16.87;;;;;;;8.04;59.62;99482.06;6826091;29;20295;-81
2021/12/20 05:07:20;;;;;;;28.27;17.23;;;;;;;8.73;59.17;99561.94;6837616;28;20680;-80
2021/12/20 05:10:42;;;;;;;29.43;16.17;;;;;;;8.79;58.87;99563.91;6818322;29;20232;-81
2021/12/20 05:14:04;;;;;;;30.73;16.90;;;;;;;8.65;58.90;99554.72;6817843;29;20219;-81
2021/12/20 05:17:26;;;;;;;30.43;18.03;;;;;;;8.57;59.22;99567.38;6830776;29;20226;-81
2021/12/20 05:20:47;;;;;;;27.87;17.03;;;;;;;8.63;59.41;99559.47;6843017;28;20224;-82
2021/12/20 05:24:10;;;;;;;30.40;17.23;;;;;;;8.62;59.61;99559.63;6842746;28;20219;-82
2021/12/20 05:27:32;;;;;;;33.77;17.43;;;;;;;8.69;59.18;99539.94;6844240;28;20210;-82
2021/12/20 05:30:54;;;;;;;33.63;17.80;;;;;;;8.46;59.77;99541.72;6843400;28;20604;-81
2021/12/20 05:34:15;;;;;;;34.73;19.03;;;;;;;8.66;59.77;99567.16;6843220;28;20197;-82
2021/12/20 05:37:37;;;;;;;41.60;22.63;;;;;;;8.38;60.39;99559.72;6843652;28;20814;-80
2021/12/20 05:41:00;;;;;;;38.20;20.07;;;;;;;8.47;59.99;99558.66;6842964;28;20224;-81
2021/12/20 05:44:22;;;;;;;36.30;19.40;;;;;;;7.99;60.58;99574.88;6842576;28;20261;-81
2021/12/20 05:47:44;;;;;;;33.87;18.93;;;;;;;8.23;61.08;99556.06;6842542;28;20219;-82
2021/12/20 05:51:05;;;;;;;36.17;21.03;;;;;;;8.42;61.21;99587.94;6842717;28;20261;-81
2021/12/20 05:54:27;;;;;;;32.47;20.10;;;;;;;8.59;60.07;99594.91;6843102;28;20686;-81
2021/12/20 05:57:50;;;;;;;34.73;19.20;;;;;;;8.56;60.55;99595.25;6842947;28;20247;-81
2021/12/20 06:01:11;;;;;;;32.27;18.30;;;;;;;8.74;59.87;99598.56;6842930;28;20250;-80
2021/12/20 06:04:33;;;;;;;32.70;18.97;;;;;;;8.83;59.18;99600.22;6830011;28;20225;-82
2021/12/20 06:07:56;;;;;;;33.00;18.30;;;;;;;8.45;59.86;99599.16;6843540;28;20207;-81
2021/12/20 06:11:18;;;;;;;33.43;18.03;;;;;;;8.41;60.55;99581.69;6826183;28;20366;-81
2021/12/20 06:14:41;;;;;;;30.57;17.67;;;;;;;8.66;59.30;99609.34;6816011;29;20211;-81
2021/12/20 06:18:03;;;;;;;27.70;16.40;;;;;;;8.66;59.22;99607.47;6817088;29;20210;-81
2021/12/20 06:21:24;;;;;;;24.83;15.47;;;;;;;8.53;59.54;99600.97;6840542;28;20662;-81
2021/12/20 06:24:46;;;;;;;27.57;15.57;;;;;;;8.60;59.37;99583.97;6839530;28;20229;-81
2021/12/20 06:28:08;;;;;;;24.87;14.70;;;;;;;8.70;59.35;99586.47;6841671;28;20668;-79
2021/12/20 06:31:30;;;;;;;26.20;15.47;;;;;;;8.71;59.51;99601.59;6840569;28;20262;-80
2021/12/20 06:34:52;;;;;;;24.90;15.07;;;;;;;8.74;58.73;99603.94;6840429;28;20670;-80
2021/12/20 06:38:19;;;;;;;24.90;14.83;;;;;;;8.62;59.21;99605.31;6830818;28;20210;-84
2021/12/20 06:41:42;;;;;;;25.90;15.47;;;;;;;8.62;59.68;99600.78;6830376;29;20234;-81
2021/12/20 06:45:05;;;;;;;25.40;15.37;;;;;;;8.56;59.06;99571.94;6839327;28;20194;-80
2021/12/20 06:48:28;;;;;;;24.70;15.57;;;;;;;8.48;59.51;99590.75;6837484;28;20240;-81
2021/12/20 06:51:51;;;;;;;25.17;15.00;;;;;;;8.53;59.60;99609.88;6838020;28;20280;-79
2021/12/20 06:55:13;;;;;;;27.30;15.70;;;;;;;8.60;59.04;99608.16;6839796;28;20826;-80
2021/12/20 06:58:35;;;;;;;28.37;15.83;;;;;;;8.43;59.42;99592.28;6839637;28;20216;-81
2021/12/20 07:01:56;;;;;;;23.13;14.83;;;;;;;8.50;59.78;99604.00;6841167;28;20249;-82
2021/12/20 07:05:19;;;;;;;28.23;15.23;;;;;;;8.62;59.28;99616.94;6840708;28;20202;-80
2021/12/20 07:08:41;;;;;;;19.13;13.63;;;;;;;8.80;58.39;99616.69;6820829;28;20236;-80
2021/12/20 07:12:03;;;;;;;24.60;14.80;;;;;;;8.43;58.83;99550.09;6838210;28;20223;-82
2021/12/20 07:15:26;;;;;;;25.90;16.10;;;;;;;8.09;59.83;99580.91;6841290;28;20228;-81
2021/12/20 07:18:48;;;;;;;25.77;15.57;;;;;;;8.68;59.45;99605.47;6841709;28;20222;-81
2021/12/20 07:22:10;;;;;;;29.60;16.87;;;;;;;8.44;59.85;99624.34;6838265;28;20225;-80
2021/12/20 07:25:32;;;;;;;26.73;16.07;;;;;;;8.83;59.34;99619.03;6840124;28;20195;-80
2021/12/20 07:28:55;;;;;;;25.33;15.30;;;;;;;8.79;58.62;99617.69;6841531;28;20211;-79
2021/12/20 07:32:16;;;;;;;26.30;16.13;;;;;;;8.78;58.87;99622.22;6838094;28;20242;-83
2021/12/20 07:35:40;;;;;;;26.40;16.37;;;;;;;8.70;58.97;99634.84;6834060;29;20243;-80
2021/12/20 07:39:03;;;;;;;27.87;16.63;;;;;;;8.42;59.96;99636.28;6833255;29;20203;-80
2021/12/20 07:42:25;;;;;;;28.10;16.47;;;;;;;8.51;59.35;99625.34;6839944;28;20232;-80
2021/12/20 07:45:47;;;;;;;29.33;16.87;;;;;;;8.35;59.60;99640.66;6839542;28;20231;-79
2021/12/20 07:49:09;;;;;;;30.40;16.87;;;;;;;8.52;59.90;99628.84;6834770;28;20222;-79
2021/12/20 07:52:32;;;;;;;29.70;16.37;;;;;;;8.61;59.45;99628.66;6836865;29;20261;-80
2021/12/20 07:55:55;;;;;;;28.43;16.23;;;;;;;8.48;60.11;99652.56;6839097;29;20306;-79
2021/12/20 07:59:17;;;;;;;33.00;17.13;;;;;;;8.08;60.88;99635.63;6840461;28;20690;-79
2021/12/20 08:02:38;;;;;;;33.67;17.83;;;;;;;8.47;60.87;99624.00;6841353;29;20236;-80
2021/12/20 08:06:00;;;;;;;32.40;17.53;;;;;;;8.37;61.20;99644.84;6835430;28;20212;-79
2021/12/20 08:09:22;;;;;;;28.93;16.93;;;;;;;8.63;59.96;99640.09;6840256;28;20250;-79
2021/12/20 08:12:45;;;;;;;25.77;16.83;;;;;;;8.81;59.51;99639.84;6842086;28;20228;-79
2021/12/20 08:16:07;;;;;;;26.17;16.73;;;;;;;8.72;59.89;99640.91;6844326;28;20214;-78
2021/12/20 08:19:28;;;;;;;26.90;15.00;;;;;;;8.92;58.27;99644.88;6845606;28;20207;-79
2021/12/20 08:22:50;;;;;;;26.03;16.07;;;;;;;8.63;59.55;99636.56;6844114;28;20230;-80
2021/12/20 08:26:12;;;;;;;23.63;15.83;;;;;;;8.98;59.42;99646.84;6844288;28;20398;-79
2021/12/20 08:29:35;;;;;;;24.00;14.87;;;;;;;8.85;59.05;99652.78;6844858;28;20683;-79
2021/12/20 08:32:57;;;;;;;23.93;15.20;;;;;;;9.06;57.69;99631.53;6844835;28;20246;-79
2021/12/20 08:36:18;;;;;;;24.40;14.10;;;;;;;9.20;57.98;99647.75;6834379;28;20312;-79
2021/12/20 08:39:40;;;;;;;23.60;14.70;;;;;;;9.29;57.51;99652.09;6831851;29;20218;-80
2021/12/20 08:43:02;;;;;;;24.17;14.53;;;;;;;9.49;56.88;99650.63;6835260;28;20272;-81
2021/12/20 08:46:25;;;;;;;26.27;14.93;;;;;;;9.45;57.38;99643.09;6816350;29;20297;-80
2021/12/20 08:49:46;;;;;;;27.07;17.83;;;;;;;8.97;58.28;99634.44;6817604;29;20220;-79
2021/12/20 08:53:10;;;;;;;23.33;14.43;;;;;;;9.49;57.02;99656.00;6841580;29;20230;-80
2021/12/20 08:56:31;;;;;;;25.67;15.30;;;;;;;9.35;57.60;99650.53;6843748;28;20258;-79
2021/12/20 08:59:53;;;;;;;22.20;14.67;;;;;;;9.35;57.91;99669.38;6830015;28;20208;-79
2021/12/20 09:03:16;;;;;;;23.03;15.83;;;;;;;9.45;57.35;99656.53;6820129;29;20230;-79
2021/12/20 09:06:41;;;;;;;25.83;15.03;;;;;;;9.69;57.17;99669.84;6839269;28;20242;-79
2021/12/20 09:10:04;;;;;;;26.43;15.70;;;;;;;9.77;57.18;99661.72;6845798;28;20608;-80
2021/12/20 09:13:25;;;;;;;22.63;15.30;;;;;;;9.79;57.40;99659.66;6841414;28;20226;-79
2021/12/20 09:16:47;;;;;;;31.17;18.00;;;;;;;9.57;57.62;99650.56;6842215;28;20237;-79
2021/12/20 09:20:11;;;;;;;20.73;15.57;;;;;;;9.90;56.77;99675.41;6842571;28;20201;-79
2021/12/20 09:23:33;;;;;;;26.50;15.77;;;;;;;9.77;56.79;99678.72;6846680;28;20208;-80
2021/12/20 09:26:55;;;;;;;25.67;15.17;;;;;;;10.01;55.97;99680.38;6829011;28;20202;-79
2021/12/20 09:30:17;;;;;;;28.30;16.53;;;;;;;10.04;55.59;99677.38;6843397;28;20206;-78
2021/12/20 09:33:39;;;;;;;29.53;16.53;;;;;;;9.90;56.72;99673.56;6842375;28;20249;-79
2021/12/20 09:37:06;;;;;;;28.27;17.87;;;;;;;9.77;56.48;99657.16;6843968;28;20215;-79
2021/12/20 09:40:33;;;;;;;25.73;17.00;;;;;;;9.94;56.06;99674.03;6844186;28;20188;-79
2021/12/20 09:43:57;;;;;;;31.07;16.90;;;;;;;9.99;56.16;99685.13;6842002;28;20291;-79
2021/12/20 09:47:20;;;;;;;29.90;16.63;;;;;;;10.11;56.33;99672.94;6843177;28;20600;-80
2021/12/20 09:50:42;;;;;;;34.43;16.80;;;;;;;10.14;56.00;99672.56;6842450;28;20268;-79
2021/12/20 09:54:05;;;;;;;28.60;16.67;;;;;;;10.11;56.15;99624.44;6842057;28;20283;-79
2021/12/20 09:57:27;;;;;;;27.13;16.23;;;;;;;10.50;56.04;99670.91;6840525;28;20283;-80
2021/12/20 10:00:49;;;;;;;27.90;15.73;;;;;;;10.58;55.63;99677.00;6842908;28;20233;-80
2021/12/20 10:04:11;;;;;;;27.20;17.63;;;;;;;10.49;56.26;99650.31;6842797;28;20266;-80
2021/12/20 10:07:33;;;;;;;26.93;16.30;;;;;;;10.32;56.68;99657.75;6838712;28;20210;-80
2021/12/20 10:10:56;;;;;;;30.03;18.23;;;;;;;10.58;56.50;99654.63;6846202;29;20225;-80
2021/12/20 10:14:19;;;;;;;27.03;17.63;;;;;;;10.89;55.53;99664.22;6841446;28;20209;-81
2021/12/20 10:17:51;;;;;;;32.90;18.00;;;;;;;10.77;55.46;99656.75;6832907;29;20232;-79
2021/12/20 10:21:13;;;;;;;28.63;16.63;;;;;;;10.85;55.61;99638.63;6833721;29;20226;-80
2021/12/20 10:24:36;;;;;;;27.23;17.77;;;;;;;11.16;54.96;99654.63;6841000;28;20241;-79
2021/12/20 10:28:07;;;;;;;26.43;16.60;;;;;;;10.93;54.21;99621.50;6842064;28;20214;-80
2021/12/20 10:31:29;;;;;;;27.07;16.47;;;;;;;11.43;55.06;99656.59;6886275;23;20234;-86
2021/12/20 10:34:51;;;;;;;20.37;13.93;;;;;;;10.18;54.98;99596.56;6895736;28;20293;-85
2021/12/20 10:38:29;;;;;;;25.37;15.33;;;;;;;10.33;55.82;99599.28;6893042;28;20232;-86
2021/12/20 10:41:53;;;;;;;26.17;16.00;;;;;;;10.60;55.70;99626.44;6893751;28;20217;-84
2021/12/20 10:49:40;;;;;;;25.37;16.47;;;;;;;10.56;55.46;99630.53;6900581;28;20210;-83
2021/12/20 10:54:00;;;;;;;28.20;15.77;;;;;;;10.82;55.53;99644.41;6903022;28;20224;-84
2021/12/20 11:02:59;;;;;;;27.17;16.67;;;;;;;11.01;55.12;99626.81;6895003;28;20247;-86
2021/12/20 11:09:31;;;;;;;29.93;17.30;;;;;;;10.95;54.83;99639.19;6898682;28;20238;-83
2021/12/20 11:12:53;;;;;;;25.23;14.47;;;;;;;11.04;54.04;99637.22;6899879;28;20212;-86
2021/12/20 11:16:27;;;;;;;27.17;14.90;;;;;;;10.93;53.99;99616.94;6897570;28;20232;-84
2021/12/20 11:19:51;;;;;;;19.90;12.30;;;;;;;10.44;54.17;99633.84;6898776;28;20242;-85
2021/12/20 11:27:10;;;;;;;16.80;11.33;;;;;;;10.45;53.66;99630.16;6873401;28;20213;-85
2021/12/20 11:40:08;;;;;;;;;;;;;;;;;;;;;
2021/12/20 12:14:34;;;;;;;19.67;12.50;;;;;;;10.18;55.07;99617.28;6613176;29;20218;-85
2021/12/20 12:17:59;;;;;;;20.47;12.93;;;;;;;9.53;56.65;99624.19;6703331;29;20315;-84
2021/12/20 12:21:39;;;;;;;22.40;13.23;;;;;;;9.40;56.66;99592.47;6785841;29;20239;-83
2021/12/20 12:25:02;;;;;;;29.43;13.20;;;;;;;9.28;56.63;99622.66;6782144;29;20208;-85
2021/12/20 12:28:26;;;;;;;25.00;11.87;;;;;;;9.38;56.69;99628.63;6787878;29;20215;-83
2021/12/20 12:31:57;;;;;;;21.70;12.77;;;;;;;9.73;56.02;99619.97;6855670;28;20730;-85
2021/12/20 12:48:53;;;;;;;16.50;9.73;;;;;;;9.71;53.87;99625.56;6850452;28;20226;-84
2021/12/20 12:52:37;;;;;;;17.23;10.20;;;;;;;9.72;53.68;99615.63;6893550;28;20223;-86
2021/12/20 12:56:35;;;;;;;16.43;9.20;;;;;;;9.93;53.52;99603.16;6889367;28;20210;-85
2021/12/20 13:00:47;;;;;;;14.33;9.07;;;;;;;10.26;52.94;99620.75;6890536;28;20210;-84
2021/12/20 13:04:46;;;;;;;15.37;10.07;;;;;;;10.41;53.12;99602.75;6884425;28;20231;-87
2021/12/20 13:08:53;;;;;;;14.83;9.47;;;;;;;10.56;52.36;99598.19;6882906;28;20376;-83
2021/12/20 13:12:27;;;;;;;16.53;9.67;;;;;;;10.46;52.10;99592.22;6903033;28;20239;-83
2021/12/20 13:15:54;;;;;;;16.43;9.17;;;;;;;10.37;51.78;99593.34;6903607;28;20214;-82
2021/12/20 13:19:27;;;;;;;14.60;9.03;;;;;;;10.13;51.40;99552.31;6897262;28;20324;-87
2021/12/20 13:23:01;;;;;;;14.17;8.37;;;;;;;10.01;51.59;99533.06;6878778;28;20228;-86
2021/12/20 13:26:28;;;;;;;15.37;9.00;;;;;;;9.85;51.62;99594.31;6895108;28;20219;-85
2021/12/20 13:29:51;;;;;;;11.40;7.77;;;;;;;9.53;52.03;99540.72;6896024;28;20212;-85
2021/12/20 13:33:14;;;;;;;13.40;8.03;;;;;;;10.06;50.95;99594.50;6898145;28;20234;-84
2021/12/20 13:41:57;;;;;;;13.70;8.33;;;;;;;10.41;50.30;99596.50;6869557;28;20225;-84
2021/12/20 13:45:21;;;;;;;10.53;7.23;;;;;;;10.12;50.04;99605.38;6828144;28;20226;-86
2021/12/20 13:48:48;;;;;;;12.47;7.20;;;;;;;10.20;50.27;99593.66;6898657;28;20233;-86
2021/12/20 13:52:11;;;;;;;10.37;6.67;;;;;;;10.09;49.13;99586.88;6887174;28;20222;-87
2021/12/20 13:55:32;;;;;;;10.90;7.43;;;;;;;9.38;49.41;99491.38;6899368;28;20196;-87
2021/12/20 13:58:54;;;;;;;10.33;6.50;;;;;;;9.47;50.15;99584.53;6898381;28;20311;-86
2021/12/20 14:02:34;;;;;;;12.33;6.53;;;;;;;9.74;48.77;99582.13;6902160;28;20326;-83
2021/12/20 14:06:02;;;;;;;13.83;6.27;;;;;;;10.18;49.07;99599.28;6894180;28;20258;-86
2021/12/20 14:09:34;;;;;;;6.50;5.20;;;;;;;10.22;47.36;99578.19;6896400;28;20196;-88
2021/12/20 14:12:58;;;;;;;9.97;5.07;;;;;;;10.29;47.23;99593.44;6894702;28;20315;-84
2021/12/20 14:16:20;;;;;;;9.03;4.43;;;;;;;10.48;47.03;99586.63;6897388;28;20204;-85
2021/12/20 14:20:07;;;;;;;7.17;4.87;;;;;;;9.94;46.68;99483.63;6887019;28;20301;-83
2021/12/20 14:23:31;;;;;;;13.37;6.93;;;;;;;10.35;48.70;99595.38;6895227;28;20229;-84
2021/12/20 14:27:03;;;;;;;12.70;7.57;;;;;;;10.20;49.47;99581.03;6883495;28;20203;-84
2021/12/20 14:30:25;;;;;;;9.43;6.70;;;;;;;9.94;49.51;99577.06;6884238;28;20661;-85
2021/12/20 14:33:50;;;;;;;14.17;8.17;;;;;;;10.07;49.71;99604.25;6895318;28;20211;-85
2021/12/20 14:37:16;;;;;;;11.37;6.83;;;;;;;9.30;50.98;99581.13;6891579;28;20226;-84
2021/12/20 14:40:44;;;;;;;16.30;9.67;;;;;;;9.00;51.47;99597.25;6893759;28;20916;-84
2021/12/20 14:44:08;;;;;;;24.03;11.83;;;;;;;9.15;51.53;99617.84;6900604;28;20599;-86
2021/12/20 14:47:38;;;;;;;26.50;13.83;;;;;;;9.29;51.51;99603.66;6900794;28;20204;-85
2021/12/20 14:51:00;;;;;;;30.03;15.70;;;;;;;9.38;51.14;99596.34;6901293;28;20686;-84
2021/12/20 14:59:03;;;;;;;18.23;10.40;;;;;;;9.23;51.60;99611.59;6813446;28;20581;-83
2021/12/20 15:02:33;;;;;;;16.97;9.10;;;;;;;9.08;51.25;99597.19;6898007;28;20240;-85
2021/12/20 15:06:05;;;;;;;16.50;8.03;;;;;;;9.12;51.45;99609.28;6893983;28;20211;-87
2021/12/20 15:09:29;;;;;;;17.03;9.30;;;;;;;9.11;51.77;99615.69;6901253;28;20224;-84
2021/12/20 15:12:50;;;;;;;21.23;9.63;;;;;;;9.13;51.56;99616.34;6899658;28;20224;-85
2021/12/20 15:16:13;;;;;;;16.13;9.57;;;;;;;8.06;53.13;99543.63;6890538;28;20203;-84
2021/12/20 15:19:35;;;;;;;14.50;7.97;;;;;;;8.19;53.28;99576.19;6894044;28;20692;-84
2021/12/20 15:22:57;;;;;;;14.20;7.30;;;;;;;7.75;53.29;99522.06;6897830;28;20226;-85
2021/12/20 15:26:20;;;;;;;12.77;7.43;;;;;;;8.09;54.00;99613.13;6894176;28;20202;-85
2021/12/20 15:29:43;;;;;;;13.93;8.10;;;;;;;7.67;55.42;99586.47;6895500;28;20655;-84
2021/12/20 15:33:10;;;;;;;15.43;9.23;;;;;;;7.83;55.25;99602.59;6897741;28;20708;-85
2021/12/20 15:36:32;;;;;;;18.60;10.93;;;;;;;8.02;54.98;99596.84;6889066;28;20202;-86
2021/12/20 15:39:54;;;;;;;14.93;9.50;;;;;;;7.79;54.92;99598.53;6895459;28;20234;-86
2021/12/20 15:43:15;;;;;;;15.50;8.23;;;;;;;7.42;55.37;99568.69;6897916;28;20224;-87
2021/12/20 15:46:37;;;;;;;11.73;8.37;;;;;;;7.24;55.07;99576.03;6899271;28;20210;-85
2021/12/20 15:50:01;;;;;;;15.03;8.83;;;;;;;7.03;55.75;99602.50;6902621;28;20676;-87
2021/12/20 15:53:32;;;;;;;18.90;9.20;;;;;;;6.81;55.40;99495.03;6905909;28;20230;-86
2021/12/20 15:56:54;;;;;;;18.97;9.87;;;;;;;7.36;55.25;99627.56;6905725;28;20202;-87
2021/12/20 16:00:16;;;;;;;15.03;9.20;;;;;;;7.09;56.03;99617.94;6898386;28;20232;-89
2021/12/20 16:07:18;;;;;;;15.47;9.07;;;;;;;6.48;56.54;99563.75;6903236;28;20269;-88
2021/12/20 16:10:40;;;;;;;15.37;9.43;;;;;;;6.35;57.70;99614.25;6905483;28;20229;-87
2021/12/20 16:18:47;;;;;;;15.40;9.47;;;;;;;6.77;56.72;99615.13;6903166;28;20705;-87
2021/12/20 16:26:23;;;;;;;14.83;8.20;;;;;;;6.31;57.71;99630.81;6896531;28;20206;-87
2021/12/20 16:33:42;;;;;;;17.73;9.10;;;;;;;6.21;56.96;99604.13;6900504;28;20267;-82
2021/12/20 16:37:04;;;;;;;13.67;8.13;;;;;;;6.25;57.07;99644.81;6905244;28;20201;-81
2021/12/20 16:40:26;;;;;;;12.30;7.17;;;;;;;6.09;57.58;99626.81;6893778;28;20649;-81
2021/12/20 16:43:49;;;;;;;12.23;7.50;;;;;;;6.00;57.62;99641.13;6875878;28;20209;-82
2021/12/20 16:47:21;;;;;;;13.53;8.20;;;;;;;6.07;57.30;99639.50;6874402;28;20205;-86
2021/12/20 16:50:42;;;;;;;14.23;8.40;;;;;;;5.80;57.55;99607.53;6864959;28;20295;-81
2021/12/20 16:54:09;;;;;;;8.70;7.00;;;;;;;5.97;57.50;99635.25;6868799;28;20201;-81
2021/12/20 16:57:30;;;;;;;11.93;7.77;;;;;;;5.96;57.39;99621.00;6876531;28;20228;-81
2021/12/20 17:00:54;;;;;;;13.77;8.50;;;;;;;5.91;57.52;99617.13;6874671;28;20221;-81
2021/12/20 17:04:38;;;;;;;12.77;8.03;;;;;;;6.14;56.85;99637.06;6871686;28;20212;-82
2021/12/20 17:08:00;;;;;;;15.90;8.70;;;;;;;5.93;57.07;99631.19;6870453;28;20213;-81
2021/12/20 17:11:21;;;;;;;12.57;7.87;;;;;;;6.04;56.70;99639.81;6846581;29;20234;-81
2021/12/20 17:14:43;;;;;;;14.23;7.57;;;;;;;5.61;57.34;99653.13;6845510;28;20686;-81
2021/12/20 17:18:08;;;;;;;13.03;8.37;;;;;;;5.73;57.29;99645.72;6848711;28;20220;-81
2021/12/20 17:21:33;;;;;;;11.80;7.80;;;;;;;5.51;57.47;99651.53;6868943;28;20254;-81
2021/12/20 17:24:54;;;;;;;14.87;9.33;;;;;;;5.55;57.65;99639.53;6856234;28;20218;-81
2021/12/20 17:28:17;;;;;;;20.07;9.97;;;;;;;5.42;57.66;99633.75;6868027;28;20217;-81
2021/12/20 17:31:39;;;;;;;17.57;8.67;;;;;;;5.43;57.80;99630.91;6872822;28;20237;-81
2021/12/20 17:35:02;;;;;;;15.53;9.33;;;;;;;4.95;58.42;99653.63;6865301;28;20234;-81
2021/12/20 17:38:23;;;;;;;13.73;8.73;;;;;;;5.04;59.03;99652.69;6873350;28;20230;-80
2021/12/20 17:41:45;;;;;;;17.33;9.10;;;;;;;5.09;58.38;99637.91;6872725;28;20236;-81
2021/12/20 17:45:08;;;;;;;16.27;8.30;;;;;;;4.97;58.87;99646.28;6873334;28;20210;-80
2021/12/20 17:48:30;;;;;;;13.67;7.73;;;;;;;5.22;58.28;99653.56;6872439;28;20209;-81
2021/12/20 17:51:56;;;;;;;12.73;7.93;;;;;;;5.35;57.46;99668.25;6874292;28;20233;-81
2021/12/20 17:55:18;;;;;;;10.40;7.70;;;;;;;5.41;57.35;99667.66;6873548;28;20197;-82
2021/12/20 17:58:40;;;;;;;14.07;8.13;;;;;;;5.28;57.10;99677.88;6878135;28;20740;-81
2021/12/20 18:02:02;;;;;;;14.73;8.63;;;;;;;5.12;57.67;99669.69;6860695;28;20230;-82
2021/12/20 18:05:24;;;;;;;12.93;8.93;;;;;;;5.04;57.76;99668.75;6872046;28;20237;-81
2021/12/20 18:08:47;;;;;;;13.33;8.93;;;;;;;5.07;58.00;99669.28;6864049;28;20204;-81
2021/12/20 18:12:10;;;;;;;13.40;10.33;;;;;;;4.82;58.07;99674.47;6867054;28;20221;-81
2021/12/20 18:15:32;;;;;;;15.97;10.20;;;;;;;4.70;59.43;99663.16;6883179;28;20205;-82
2021/12/20 18:18:54;;;;;;;15.63;8.43;;;;;;;4.69;59.46;99664.16;6874024;28;20229;-82
2021/12/20 18:22:15;;;;;;;14.33;7.83;;;;;;;4.79;58.79;99675.59;6866393;28;20232;-82
2021/12/20 18:25:38;;;;;;;47.20;28.87;;;;;;;4.97;58.14;99671.19;6858036;28;20603;-81
2021/12/20 18:29:00;;;;;;;18.83;13.43;;;;;;;5.01;58.26;99666.38;6863830;28;20237;-82
2021/12/20 18:32:22;;;;;;;17.37;11.97;;;;;;;4.98;57.80;99672.00;6867405;28;20244;-81
2021/12/20 18:35:44;;;;;;;16.13;10.10;;;;;;;4.72;57.91;99674.53;6877992;28;20210;-82
2021/12/20 18:39:07;;;;;;;13.83;10.17;;;;;;;4.65;58.81;99662.75;6865941;28;20279;-81
2021/12/20 18:42:30;;;;;;;20.50;12.60;;;;;;;4.71;58.68;99672.03;6873971;28;20221;-81
2021/12/20 18:45:54;;;;;;;14.60;8.03;;;;;;;4.67;58.44;99665.28;6856010;28;20205;-82
2021/12/20 18:49:16;;;;;;;14.37;8.67;;;;;;;4.75;57.80;99644.00;6873197;28;20210;-81
2021/12/20 18:52:38;;;;;;;12.00;7.70;;;;;;;4.63;58.08;99669.22;6874554;28;20742;-82
2021/12/20 18:56:01;;;;;;;14.23;7.47;;;;;;;4.49;58.29;99673.19;6873326;28;20205;-82
2021/12/20 18:59:24;;;;;;;13.53;8.17;;;;;;;4.42;58.91;99660.59;6873647;28;20228;-81
2021/12/20 19:02:45;;;;;;;15.17;9.87;;;;;;;4.45;59.06;99660.28;6873438;28;20229;-82
2021/12/20 19:06:07;;;;;;;15.03;10.60;;;;;;;4.83;57.54;99660.97;6872806;28;20201;-82
2021/12/20 19:09:30;;;;;;;14.10;10.70;;;;;;;4.94;57.30;99663.44;6873798;28;20786;-81
2021/12/20 19:13:00;;;;;;;12.17;8.47;;;;;;;4.76;57.14;99670.56;6873248;28;20261;-82
2021/12/20 19:16:23;;;;;;;13.43;8.57;;;;;;;4.75;57.63;99676.06;6865844;28;20273;-82
2021/12/20 19:19:45;;;;;;;10.53;7.47;;;;;;;4.54;57.76;99678.94;6851763;28;20227;-82
2021/12/20 19:23:07;;;;;;;10.33;8.60;;;;;;;4.20;58.20;99669.78;6860916;28;20229;-81
2021/12/20 19:26:29;;;;;;;12.97;7.77;;;;;;;4.15;57.76;99676.53;6864692;28;20205;-82
2021/12/20 19:29:53;;;;;;;13.70;7.80;;;;;;;3.96;58.81;99653.41;6873452;28;20219;-81
2021/12/20 19:33:16;;;;;;;19.87;12.03;;;;;;;4.33;57.65;99667.66;6872931;28;20228;-81
2021/12/20 19:36:38;;;;;;;18.27;11.93;;;;;;;3.97;59.06;99668.44;6872204;28;20220;-81
2021/12/20 19:40:00;;;;;;;26.17;17.70;;;;;;;3.88;58.79;99647.09;6873723;28;20229;-81
2021/12/20 19:43:22;;;;;;;14.47;9.37;;;;;;;4.17;58.66;99674.56;6866507;28;20430;-82
2021/12/20 19:46:44;;;;;;;16.83;8.40;;;;;;;4.34;57.88;99664.00;6864389;28;20209;-81
2021/12/20 19:50:08;;;;;;;12.30;8.00;;;;;;;4.12;58.20;99671.50;6874636;28;20216;-81
2021/12/20 19:53:30;;;;;;;14.17;8.23;;;;;;;4.21;58.42;99676.81;6876404;28;20224;-81
2021/12/20 19:56:53;;;;;;;14.17;8.67;;;;;;;4.19;57.92;99689.44;6874429;28;20212;-81
2021/12/20 20:00:15;;;;;;;14.07;9.07;;;;;;;3.69;57.59;99685.31;6874255;28;20248;-82
2021/12/20 20:03:37;;;;;;;19.20;9.87;;;;;;;3.72;58.93;99692.19;6874349;28;20205;-81
2021/12/20 20:07:02;;;;;;;15.13;10.03;;;;;;;3.76;58.97;99682.91;6878235;28;20228;-81
2021/12/20 20:10:25;;;;;;;16.50;10.13;;;;;;;3.39;58.91;99666.78;6880342;28;20201;-82
2021/12/20 20:13:47;;;;;;;12.53;9.30;;;;;;;3.58;59.71;99684.59;6881378;28;20200;-81
2021/12/20 20:17:10;;;;;;;15.43;10.60;;;;;;;3.77;58.53;99688.09;6879037;28;20213;-81
2021/12/20 20:20:31;;;;;;;16.63;10.83;;;;;;;3.66;58.75;99676.75;6879463;28;20235;-81
2021/12/20 20:23:55;;;;;;;17.73;10.53;;;;;;;3.65;59.40;99683.06;6878702;28;20215;-82
2021/12/20 20:27:17;;;;;;;12.70;9.60;;;;;;;3.83;58.48;99668.03;6877430;28;20205;-81
2021/12/20 20:30:39;;;;;;;17.10;9.27;;;;;;;3.86;58.75;99667.75;6878937;28;20225;-82
2021/12/20 20:34:00;;;;;;;17.67;10.60;;;;;;;3.62;58.33;99657.53;6869106;28;20717;-86
2021/12/20 20:37:22;;;;;;;17.90;9.80;;;;;;;3.97;58.17;99660.44;6864031;28;20197;-82
2021/12/20 20:40:45;;;;;;;14.70;9.20;;;;;;;3.94;57.79;99678.53;6879871;28;20232;-82
2021/12/20 20:44:07;;;;;;;16.73;10.53;;;;;;;3.33;57.53;99671.81;6881368;28;20655;-81
2021/12/20 20:47:28;;;;;;;14.63;9.80;;;;;;;3.81;57.53;99686.84;6881280;28;20201;-81
2021/12/20 20:50:50;;;;;;;15.77;10.63;;;;;;;3.63;57.92;99677.88;6886073;28;20327;-83
2021/12/20 20:54:12;;;;;;;16.20;8.73;;;;;;;3.64;57.66;99674.22;6890065;28;20945;-82
2021/12/20 20:57:35;;;;;;;15.27;10.00;;;;;;;3.32;57.77;99675.44;6875900;28;20201;-82
2021/12/20 21:04:32;;;;;;;15.00;9.63;;;;;;;3.34;58.14;99673.47;6864723;28;20259;-82
2021/12/20 21:07:54;;;;;;;14.40;9.27;;;;;;;3.23;58.63;99682.44;6870367;28;20577;-82
2021/12/20 21:11:15;;;;;;;14.20;9.63;;;;;;;3.35;57.96;99685.81;6875778;28;20229;-82
2021/12/20 21:14:39;;;;;;;17.33;12.20;;;;;;;3.32;58.17;99673.63;6874523;28;20208;-82
2021/12/20 21:18:01;;;;;;;21.30;10.47;;;;;;;3.22;58.57;99678.09;6874707;28;20302;-82
2021/12/20 21:21:23;;;;;;;12.43;8.83;;;;;;;3.14;59.15;99671.78;6874733;28;20599;-82
2021/12/20 21:24:45;;;;;;;15.53;8.07;;;;;;;2.82;59.41;99679.97;6875071;28;20217;-82
2021/12/20 21:28:06;;;;;;;23.30;13.53;;;;;;;3.04;59.09;99678.91;6874468;28;20209;-82
2021/12/20 21:31:29;;;;;;;27.13;14.10;;;;;;;3.15;58.83;99684.13;6874833;28;20229;-82
2021/12/20 21:34:51;;;;;;;30.13;15.10;;;;;;;3.17;58.36;99669.69;6871396;28;20204;-82
2021/12/20 21:38:13;;;;;;;20.87;10.43;;;;;;;3.39;58.77;99665.91;6860017;28;20208;-82
2021/12/20 21:41:35;;;;;;;21.73;13.70;;;;;;;3.45;57.16;99652.88;6874984;28;20584;-82
2021/12/20 21:44:56;;;;;;;16.80;8.53;;;;;;;3.43;57.35;99660.16;6874395;28;20208;-82
2021/12/20 21:48:20;;;;;;;16.77;8.87;;;;;;;3.07;57.38;99665.31;6876419;28;20227;-81
2021/12/20 21:51:41;;;;;;;10.40;7.33;;;;;;;2.73;58.92;99666.63;6880697;28;20232;-82
2021/12/20 21:55:03;;;;;;;15.97;9.87;;;;;;;2.15;59.80;99675.31;6880212;28;20213;-81
2021/12/20 21:58:25;;;;;;;14.87;8.13;;;;;;;2.84;59.64;99654.03;6874679;28;20209;-81
